Time;durP1;ratioP1;P1;durP2;ratioP2;P2;SDS_P1;SDS_P2;PMS_P1;PMS_P2;Temp;Humidity;BMP_temperature;BMP_pressure;BME280_temperature;BME280_humidity;BME280_pressure;Samples;Min_cycle;Max_cycle;Signal;HPM_P1;HPM_P2
2022/10/11 00:02:14;;;;;;;7.38;4.85;;;;;;;15.42;100.00;100985.47;5092517;28;20028;-76
2022/10/11 00:04:39;;;;;;;6.47;4.70;;;;;;;15.13;100.00;100970.09;5091156;28;20028;-75
2022/10/11 00:07:05;;;;;;;6.22;4.45;;;;;;;14.97;100.00;100927.09;5092262;28;20047;-75
2022/10/11 00:09:30;;;;;;;9.35;5.07;;;;;;;15.26;100.00;100962.91;5092372;28;20028;-76
2022/10/11 00:11:56;;;;;;;6.30;4.57;;;;;;;14.92;100.00;100918.72;5092371;28;20012;-76
2022/10/11 00:14:23;;;;;;;8.50;4.70;;;;;;;15.46;100.00;100965.69;5092421;28;20458;-75
2022/10/11 00:16:49;;;;;;;5.55;4.70;;;;;;;14.96;100.00;100921.13;5091290;28;20028;-75
2022/10/11 00:19:14;;;;;;;7.85;4.70;;;;;;;15.10;100.00;100962.53;5091541;28;20021;-73
2022/10/11 00:21:40;;;;;;;7.32;5.00;;;;;;;14.86;100.00;100909.50;5091823;28;20043;-74
2022/10/11 00:24:06;;;;;;;7.32;4.75;;;;;;;14.60;100.00;100879.56;5091797;28;20040;-75
2022/10/11 00:26:31;;;;;;;8.68;4.82;;;;;;;15.06;100.00;100958.38;5091987;28;20018;-75
2022/10/11 00:28:57;;;;;;;7.78;5.03;;;;;;;15.05;100.00;100948.19;5092521;28;20467;-75
2022/10/11 00:31:23;;;;;;;8.18;4.90;;;;;;;14.81;100.00;100938.69;5092390;28;20106;-76
2022/10/11 00:33:48;;;;;;;12.57;5.40;;;;;;;14.88;100.00;100928.22;5090635;28;20119;-75
2022/10/11 00:36:15;;;;;;;9.63;5.32;;;;;;;14.30;100.00;100867.66;5092264;28;20036;-76
2022/10/11 00:38:44;;;;;;;8.13;4.93;;;;;;;15.00;100.00;100929.56;5091314;28;20028;-75
2022/10/11 00:41:10;;;;;;;7.03;4.80;;;;;;;14.85;100.00;100933.44;5091954;28;20135;-79
2022/10/11 00:43:36;;;;;;;9.45;4.80;;;;;;;14.77;100.00;100926.00;5091998;28;20123;-77
2022/10/11 00:46:26;;;;;;;8.02;4.57;;;;;;;14.34;100.00;100865.88;5091881;28;20123;-75
2022/10/11 00:48:59;;;;;;;8.65;4.85;;;;;;;14.72;100.00;100930.38;5095142;28;20040;-79
2022/10/11 00:51:38;;;;;;;7.40;4.82;;;;;;;14.70;100.00;100901.44;5096157;28;20028;-79
2022/10/11 00:54:06;;;;;;;7.03;4.45;;;;;;;14.86;100.00;100940.22;5096161;28;20174;-81
2022/10/11 00:56:36;;;;;;;5.95;4.75;;;;;;;14.21;100.00;100859.38;5096086;28;20034;-79
2022/10/11 00:59:07;;;;;;;7.40;4.95;;;;;;;14.61;100.00;100941.84;5095167;28;20509;-80
2022/10/11 01:01:33;;;;;;;9.40;4.57;;;;;;;14.61;100.00;100927.31;5095276;28;20080;-78
2022/10/11 01:04:00;;;;;;;8.48;4.90;;;;;;;14.36;100.00;100928.88;5094791;28;20036;-76
2022/10/11 01:06:25;;;;;;;7.35;4.93;;;;;;;14.58;100.00;100929.97;5095897;28;20035;-76
2022/10/11 01:08:51;;;;;;;6.47;5.03;;;;;;;14.60;100.00;100925.63;5095686;28;20024;-79
2022/10/11 01:11:21;;;;;;;7.05;4.70;;;;;;;14.55;100.00;100921.53;5094626;28;20024;-76
2022/10/11 01:14:05;;;;;;;6.30;4.38;;;;;;;14.76;100.00;100931.97;5095937;28;20525;-79
2022/10/11 01:16:49;;;;;;;8.10;5.10;;;;;;;14.32;100.00;100923.91;5096447;28;20135;-79
2022/10/11 01:19:35;;;;;;;8.10;5.15;;;;;;;14.40;100.00;100915.13;5095853;28;20087;-77
2022/10/11 01:22:19;;;;;;;7.25;5.32;;;;;;;14.26;100.00;100912.09;5095619;28;20053;-77
2022/10/11 01:25:03;;;;;;;10.50;5.47;;;;;;;14.44;100.00;100913.34;5095720;28;20016;-76
2022/10/11 01:27:37;;;;;;;9.02;5.28;;;;;;;14.16;100.00;100861.25;5095793;28;20108;-77
2022/10/11 01:30:21;;;;;;;11.30;5.30;;;;;;;14.20;100.00;100909.69;5095603;28;20039;-76
2022/10/11 01:33:08;;;;;;;7.00;5.50;;;;;;;14.03;100.00;100849.66;5095416;28;20031;-74
2022/10/11 01:35:39;;;;;;;8.13;5.55;;;;;;;14.05;100.00;100899.91;5095262;28;20085;-75
2022/10/11 01:38:10;;;;;;;7.22;4.70;;;;;;;14.18;100.00;100878.22;5095350;28;20032;-75
2022/10/11 01:40:38;;;;;;;;;;;;;;;14.19;100.00;100894.41;5094756;28;20090;-76
2022/10/11 01:43:04;;;;;;;10.15;4.90;;;;;;;13.88;100.00;100825.41;5094053;28;19976;-76
2022/10/11 01:45:36;;;;;;;7.72;5.00;;;;;;;13.71;100.00;100761.09;5095384;28;20088;-75
2022/10/11 01:48:07;;;;;;;;;;;;;;;14.46;100.00;100897.03;5096142;28;20074;-74
2022/10/11 01:50:33;;;;;;;7.95;5.22;;;;;;;14.49;100.00;100906.34;5094814;28;19908;-75
2022/10/11 01:53:09;;;;;;;8.77;5.65;;;;;;;14.26;100.00;100872.91;5095233;28;20036;-75
2022/10/11 01:55:47;;;;;;;8.10;5.72;;;;;;;14.39;100.00;100894.72;5094831;28;20508;-75
2022/10/11 01:58:35;;;;;;;6.80;5.38;;;;;;;14.16;100.00;100897.06;5094001;28;20110;-75
2022/10/11 02:01:06;;;;;;;8.75;5.72;;;;;;;14.25;100.00;100891.66;5094681;28;20509;-74
2022/10/11 02:04:06;;;;;;;7.35;4.15;;;;;;;14.28;100.00;100891.63;5094639;28;20031;-73
2022/10/11 02:06:32;;;;;;;8.07;6.35;;;;;;;14.18;100.00;100895.28;5094336;28;20028;-75
2022/10/11 02:09:23;;;;;;;9.18;6.35;;;;;;;14.19;100.00;100884.16;5094117;28;20031;-74
2022/10/11 02:11:48;;;;;;;7.38;5.50;;;;;;;13.75;100.00;100809.53;5093914;28;20044;-74
2022/10/11 02:14:21;;;;;;;10.30;6.28;;;;;;;13.84;100.00;100809.28;5094274;28;20031;-73
2022/10/11 02:17:02;;;;;;;6.78;5.95;;;;;;;14.23;100.00;100878.94;5092748;28;20543;-74
2022/10/11 02:19:33;;;;;;;8.38;6.60;;;;;;;14.11;100.00;100881.81;5093896;28;20028;-74
2022/10/11 02:22:04;;;;;;;10.87;6.00;;;;;;;13.94;100.00;100826.03;5094258;28;20085;-75
2022/10/11 02:24:32;;;;;;;9.37;6.63;;;;;;;13.84;100.00;100822.06;5093796;28;20663;-75
2022/10/11 02:27:01;;;;;;;11.20;7.63;;;;;;;14.08;100.00;100875.97;5092868;28;20051;-75
2022/10/11 02:29:31;;;;;;;11.38;7.22;;;;;;;14.22;100.00;100886.66;5094113;28;20183;-75
2022/10/11 02:31:59;;;;;;;14.05;8.02;;;;;;;13.80;100.00;100853.72;5093634;28;20057;-75
2022/10/11 02:34:36;;;;;;;11.82;8.70;;;;;;;13.99;100.00;100868.53;5092755;28;20124;-75
2022/10/11 02:37:14;;;;;;;13.90;8.73;;;;;;;13.74;100.00;100813.00;5094188;28;20032;-74
2022/10/11 02:39:52;;;;;;;12.63;9.05;;;;;;;14.08;100.00;100869.16;5093735;28;20048;-73
2022/10/11 02:42:35;;;;;;;15.05;8.13;;;;;;;13.84;100.00;100795.69;5093670;28;20024;-74
2022/10/11 02:45:07;;;;;;;12.73;8.13;;;;;;;14.27;100.00;100877.97;5092454;28;20031;-76
2022/10/11 02:47:33;;;;;;;12.15;8.65;;;;;;;13.80;100.00;100869.06;5093991;28;20028;-77
2022/10/11 02:49:59;;;;;;;13.02;8.52;;;;;;;14.06;100.00;100870.91;5093578;28;20028;-75
2022/10/11 02:52:25;;;;;;;12.40;8.40;;;;;;;13.98;100.00;100833.63;5093528;28;20719;-79
2022/10/11 02:54:51;;;;;;;11.90;8.70;;;;;;;13.75;100.00;100796.75;5093931;28;20173;-74
2022/10/11 02:57:16;;;;;;;12.65;8.45;;;;;;;14.00;100.00;100842.94;5093529;28;20231;-75
2022/10/11 02:59:42;;;;;;;16.45;7.75;;;;;;;13.67;100.00;100802.97;5093622;28;20065;-76
2022/10/11 03:02:07;;;;;;;14.25;8.00;;;;;;;13.68;100.00;100807.22;5093648;28;20425;-75
2022/10/11 03:04:32;;;;;;;12.77;7.60;;;;;;;13.61;100.00;100806.53;5093594;28;20028;-77
2022/10/11 03:07:02;;;;;;;13.40;7.13;;;;;;;14.20;100.00;100853.44;5093775;28;20028;-74
2022/10/11 03:09:28;;;;;;;10.90;6.90;;;;;;;13.67;100.00;100803.81;5092296;28;20036;-74
2022/10/11 03:11:53;;;;;;;12.77;6.55;;;;;;;13.78;100.00;100854.63;5092585;28;20060;-75
2022/10/11 03:14:19;;;;;;;11.07;7.68;;;;;;;13.35;100.00;100803.00;5092774;28;20531;-74
2022/10/11 03:16:44;;;;;;;11.20;6.57;;;;;;;13.52;100.00;100793.16;5092371;28;20035;-76
2022/10/11 03:19:10;;;;;;;12.85;7.00;;;;;;;13.90;100.00;100851.75;5091951;28;20115;-77
2022/10/11 03:21:36;;;;;;;9.77;5.65;;;;;;;14.87;100.00;100839.50;5092755;28;20031;-78
2022/10/11 03:24:02;;;;;;;10.15;6.40;;;;;;;14.11;100.00;100840.06;5092949;28;20032;-73
2022/10/11 03:26:27;;;;;;;8.70;6.50;;;;;;;14.25;100.00;100853.31;5090777;28;20042;-75
2022/10/11 03:28:53;;;;;;;11.32;6.93;;;;;;;13.31;100.00;100733.25;5092377;28;20036;-74
2022/10/11 03:31:20;;;;;;;11.70;8.05;;;;;;;13.80;100.00;100827.31;5092173;28;20032;-74
2022/10/11 03:33:46;;;;;;;11.73;6.70;;;;;;;14.01;100.00;100843.75;5092188;28;20127;-74
2022/10/11 03:36:12;;;;;;;13.65;7.35;;;;;;;13.99;100.00;100846.38;5092236;28;20099;-76
2022/10/11 03:38:37;;;;;;;9.32;6.75;;;;;;;14.20;100.00;100847.50;5092539;28;20039;-75
2022/10/11 03:41:02;;;;;;;11.35;6.45;;;;;;;13.80;100.00;100799.22;5092229;28;20486;-75
2022/10/11 03:43:29;;;;;;;12.65;6.75;;;;;;;14.15;100.00;100847.63;5092217;28;20043;-75
2022/10/11 03:45:54;;;;;;;11.77;6.82;;;;;;;13.55;100.00;100730.03;5108197;28;20533;-75
2022/10/11 03:48:20;;;;;;;20.30;7.53;;;;;;;13.68;100.00;100799.53;5112734;28;20122;-75
2022/10/11 03:50:47;;;;;;;15.50;7.40;;;;;;;13.71;100.00;100787.50;5112834;28;20382;-74
2022/10/11 03:53:13;;;;;;;12.52;7.45;;;;;;;13.62;100.00;100789.47;5111862;28;20023;-76
2022/10/11 03:55:39;;;;;;;11.82;7.20;;;;;;;13.93;100.00;100849.09;5112215;28;20027;-75
2022/10/11 03:58:04;;;;;;;12.15;7.43;;;;;;;13.89;100.00;100827.06;5112252;28;20501;-75
2022/10/11 04:00:30;;;;;;;11.23;7.00;;;;;;;14.14;100.00;100860.47;5111240;28;20032;-75
2022/10/11 04:02:56;;;;;;;11.68;7.10;;;;;;;13.86;100.00;100850.97;5112314;28;20026;-75
2022/10/11 04:05:21;;;;;;;14.57;7.25;;;;;;;13.84;100.00;100798.25;5111448;28;20042;-76
2022/10/11 04:07:47;;;;;;;10.77;7.20;;;;;;;14.22;100.00;100858.53;5111793;28;20096;-74
2022/10/11 04:10:13;;;;;;;13.57;7.63;;;;;;;13.67;100.00;100777.41;5110619;28;20039;-73
2022/10/11 04:12:38;;;;;;;14.90;7.50;;;;;;;13.68;100.00;100825.94;5111581;28;20027;-74
2022/10/11 04:15:05;;;;;;;13.85;8.85;;;;;;;13.84;100.00;100847.63;5111866;28;20032;-73
2022/10/11 04:17:31;;;;;;;14.07;7.55;;;;;;;14.12;100.00;100847.72;5111750;28;20172;-73
2022/10/11 04:19:56;;;;;;;14.60;7.55;;;;;;;13.53;100.00;100782.06;5111214;28;20027;-74
2022/10/11 04:22:21;;;;;;;11.40;7.03;;;;;;;14.15;100.00;100834.84;5113638;28;20035;-74
2022/10/11 04:24:47;;;;;;;10.32;7.10;;;;;;;14.17;100.00;100834.78;5116477;28;20501;-72
2022/10/11 04:27:12;;;;;;;13.95;7.90;;;;;;;14.15;100.00;100837.38;5114538;28;20134;-73
2022/10/11 04:29:37;;;;;;;12.57;7.47;;;;;;;13.51;100.00;100771.06;5114935;28;20024;-73
2022/10/11 04:32:03;;;;;;;14.95;7.57;;;;;;;14.56;100.00;100831.06;5115141;28;20443;-76
2022/10/11 04:34:28;;;;;;;13.93;7.40;;;;;;;14.82;100.00;100855.84;5101238;28;20032;-74
2022/10/11 04:36:54;;;;;;;9.70;6.97;;;;;;;14.06;100.00;100847.03;5112270;28;20081;-74
2022/10/11 04:39:19;;;;;;;14.95;7.70;;;;;;;13.91;100.00;100843.19;5115603;28;20110;-73
2022/10/11 04:41:45;;;;;;;16.70;8.43;;;;;;;13.58;100.00;100800.66;5115535;28;20028;-75
2022/10/11 04:44:10;;;;;;;17.27;9.60;;;;;;;13.78;100.00;100791.59;5114316;28;20482;-71
2022/10/11 04:46:35;;;;;;;20.10;11.98;;;;;;;14.03;100.00;100806.19;5116115;28;20046;-74
2022/10/11 04:49:01;;;;;;;18.60;14.70;;;;;;;13.83;100.00;100789.72;5107889;28;20028;-77
2022/10/11 04:51:27;;;;;;;22.38;13.38;;;;;;;14.27;100.00;100842.16;5106513;28;20157;-74
2022/10/11 04:53:53;;;;;;;20.75;12.05;;;;;;;14.55;100.00;100865.25;5095642;28;20032;-75
2022/10/11 04:56:18;;;;;;;31.48;12.15;;;;;;;14.36;100.00;100820.63;5094172;28;20024;-77
2022/10/11 04:58:47;;;;;;;30.95;13.20;;;;;;;13.99;100.00;100808.03;5094604;28;20024;-76
2022/10/11 05:01:12;;;;;;;44.63;12.80;;;;;;;14.07;100.00;100815.47;5095842;28;20058;-76
2022/10/11 05:03:38;;;;;;;45.33;13.43;;;;;;;14.00;100.00;100789.25;5095288;28;20131;-77
2022/10/11 05:06:04;;;;;;;38.00;12.73;;;;;;;14.48;100.00;100802.34;5095661;28;20035;-77
2022/10/11 05:08:29;;;;;;;35.67;13.23;;;;;;;14.64;100.00;100870.06;5095977;28;20027;-77
2022/10/11 05:10:56;;;;;;;36.45;14.43;;;;;;;14.64;100.00;100877.75;5094943;28;20507;-77
2022/10/11 05:13:22;;;;;;;39.17;15.30;;;;;;;14.33;100.00;100823.25;5094558;28;20042;-77
2022/10/11 05:15:47;;;;;;;28.77;14.68;;;;;;;14.50;100.00;100867.06;5095867;28;20107;-76
2022/10/11 05:18:13;;;;;;;32.25;16.30;;;;;;;14.52;100.00;100866.16;5095829;28;20115;-77
2022/10/11 05:20:38;;;;;;;36.47;16.25;;;;;;;14.48;100.00;100866.31;5096106;28;20401;-76
2022/10/11 05:23:03;;;;;;;29.33;16.38;;;;;;;14.27;100.00;100810.59;5096165;28;20028;-77
2022/10/11 05:25:29;;;;;;;26.90;16.55;;;;;;;14.59;100.00;100861.69;5095275;28;20024;-76
2022/10/11 05:27:54;;;;;;;30.05;16.13;;;;;;;14.45;100.00;100813.50;5095638;28;20085;-76
2022/10/11 05:30:20;;;;;;;27.13;15.85;;;;;;;14.26;100.00;100798.72;5095356;28;20024;-76
2022/10/11 05:32:45;;;;;;;18.00;11.52;;;;;;;14.71;100.00;100866.44;5095311;28;20482;-76
2022/10/11 05:35:10;;;;;;;17.35;11.45;;;;;;;14.65;100.00;100861.50;5094942;28;20111;-76
2022/10/11 05:37:36;;;;;;;17.85;10.93;;;;;;;15.03;100.00;100860.31;5095631;28;20024;-77
2022/10/11 05:40:02;;;;;;;19.48;11.95;;;;;;;14.66;100.00;100802.59;5093397;28;20055;-77
2022/10/11 05:42:28;;;;;;;24.10;11.80;;;;;;;14.93;100.00;100807.72;5095072;28;20081;-76
2022/10/11 05:44:53;;;;;;;21.40;10.82;;;;;;;15.03;100.00;100883.38;5095147;28;20032;-77
2022/10/11 05:47:18;;;;;;;19.60;11.50;;;;;;;14.81;100.00;100836.28;5093797;28;20483;-77
2022/10/11 05:49:44;;;;;;;17.50;11.27;;;;;;;14.78;100.00;100820.13;5095565;28;20070;-77
2022/10/11 05:52:09;;;;;;;18.83;10.98;;;;;;;14.84;100.00;100808.00;5094834;28;20506;-78
2022/10/11 05:54:35;;;;;;;19.42;9.65;;;;;;;14.91;100.00;100812.91;5094949;28;20077;-77
2022/10/11 05:57:00;;;;;;;19.90;10.73;;;;;;;15.45;100.00;100882.03;5094638;28;20024;-77
2022/10/11 05:59:26;;;;;;;25.35;10.25;;;;;;;15.55;100.00;100880.81;5093827;28;20024;-77
2022/10/11 06:01:51;;;;;;;18.25;10.25;;;;;;;14.99;100.00;100818.63;5094394;28;20024;-76
2022/10/11 06:04:17;;;;;;;17.38;9.98;;;;;;;15.50;100.00;100873.28;5093132;28;20417;-76
2022/10/11 06:06:43;;;;;;;17.27;9.23;;;;;;;15.84;100.00;100880.66;5093331;28;20544;-76
2022/10/11 06:09:09;;;;;;;21.77;9.70;;;;;;;15.53;100.00;100844.13;5094582;28;20020;-76
2022/10/11 06:11:34;;;;;;;18.90;10.25;;;;;;;15.68;100.00;100829.94;5094997;28;20028;-78
2022/10/11 06:14:00;;;;;;;17.90;9.75;;;;;;;15.93;100.00;100879.47;5094533;28;20089;-77
2022/10/11 06:16:25;;;;;;;19.08;9.75;;;;;;;16.09;100.00;100888.31;5093381;28;20069;-78
2022/10/11 06:18:55;;;;;;;14.60;9.20;;;;;;;15.81;100.00;100828.63;5093521;28;20062;-77
2022/10/11 06:21:22;;;;;;;21.77;12.50;;;;;;;15.99;100.00;100884.41;5094399;28;20146;-77
2022/10/11 06:23:49;;;;;;;26.33;13.25;;;;;;;16.26;100.00;100886.81;5094125;28;20059;-79
2022/10/11 06:26:16;;;;;;;27.02;11.38;;;;;;;16.16;100.00;100894.91;5093363;28;20054;-77
2022/10/11 06:28:42;;;;;;;29.83;10.85;;;;;;;15.98;100.00;100886.16;5093948;28;20032;-75
2022/10/11 06:31:07;;;;;;;28.20;10.50;;;;;;;16.05;100.00;100887.59;5093769;28;20066;-76
2022/10/11 06:33:33;;;;;;;28.25;10.23;;;;;;;16.14;100.00;100901.81;5093652;28;20035;-77
2022/10/11 06:36:01;;;;;;;32.88;9.30;;;;;;;16.20;100.00;100912.69;5092552;28;20042;-77
2022/10/11 06:38:26;;;;;;;32.83;9.70;;;;;;;16.20;100.00;100901.59;5092373;28;20028;-75
2022/10/11 06:40:52;;;;;;;30.23;8.93;;;;;;;16.38;100.00;100900.94;5093965;28;20055;-75
2022/10/11 06:43:17;;;;;;;23.52;8.93;;;;;;;16.32;100.00;100907.09;5094062;28;20122;-75
2022/10/11 06:45:42;;;;;;;32.60;9.70;;;;;;;15.94;100.00;100852.94;5092484;28;20788;-74
2022/10/11 06:48:08;;;;;;;31.65;9.93;;;;;;;16.55;100.00;100892.63;5091307;28;20071;-75
2022/10/11 06:50:33;;;;;;;26.55;9.68;;;;;;;16.60;100.00;100876.13;5092513;28;20533;-74
2022/10/11 06:52:59;;;;;;;22.65;8.90;;;;;;;16.29;100.00;100783.22;5092604;28;20024;-74
2022/10/11 06:55:25;;;;;;;19.60;8.07;;;;;;;16.77;100.00;100891.75;5093080;28;20103;-73
2022/10/11 06:57:50;;;;;;;17.33;7.40;;;;;;;16.45;100.00;100826.19;5092152;28;20034;-74
2022/10/11 07:00:16;;;;;;;14.43;6.55;;;;;;;16.69;100.00;100896.34;5093151;28;20535;-74
2022/10/11 07:02:41;;;;;;;12.70;6.22;;;;;;;16.72;100.00;100887.69;5092529;28;20020;-73
2022/10/11 07:05:07;;;;;;;10.13;5.53;;;;;;;16.65;100.00;100881.94;5091146;28;20027;-73
2022/10/11 07:07:33;;;;;;;10.15;5.35;;;;;;;16.87;100.00;100863.97;5092603;28;20089;-74
2022/10/11 07:09:58;;;;;;;9.65;4.97;;;;;;;17.46;100.00;100889.81;5092724;28;20035;-73
2022/10/11 07:12:24;;;;;;;9.65;5.20;;;;;;;17.52;100.00;100880.16;5092305;28;20036;-73
2022/10/11 07:14:49;;;;;;;11.00;5.07;;;;;;;17.58;100.00;100900.47;5091783;28;20028;-75
2022/10/11 07:17:14;;;;;;;9.52;4.25;;;;;;;17.21;100.00;100821.41;5092795;28;20024;-75
2022/10/11 07:19:40;;;;;;;7.90;4.47;;;;;;;18.03;100.00;100908.78;5092705;28;20115;-74
2022/10/11 07:22:05;;;;;;;7.60;3.97;;;;;;;17.84;100.00;100856.47;5092689;28;20020;-76
2022/10/11 07:24:30;;;;;;;8.10;3.70;;;;;;;17.89;100.00;100864.81;5092413;28;20024;-74
2022/10/11 07:26:56;;;;;;;11.23;4.30;;;;;;;17.90;100.00;100891.38;5092928;28;20024;-73
2022/10/11 07:29:22;;;;;;;7.20;3.60;;;;;;;17.65;100.00;100888.19;5092741;28;20035;-74
2022/10/11 07:31:47;;;;;;;8.63;4.15;;;;;;;17.09;100.00;100792.84;5091678;28;20067;-74
2022/10/11 07:34:12;;;;;;;6.53;4.20;;;;;;;18.02;100.00;100889.13;5091342;28;20028;-74
2022/10/11 07:36:38;;;;;;;10.90;4.05;;;;;;;17.55;100.00;100830.34;5091455;28;20517;-74
2022/10/11 07:39:05;;;;;;;7.50;3.72;;;;;;;17.80;100.00;100839.50;5092555;28;20067;-74
2022/10/11 07:41:31;;;;;;;8.05;3.63;;;;;;;17.86;100.00;100851.25;5090909;28;20047;-75
2022/10/11 07:43:56;;;;;;;10.13;3.90;;;;;;;17.96;100.00;100886.81;5092286;28;20551;-75
2022/10/11 07:46:22;;;;;;;8.05;3.50;;;;;;;18.02;100.00;100898.56;5092100;28;20119;-74
2022/10/11 07:48:49;;;;;;;7.03;3.40;;;;;;;18.19;100.00;100903.81;5092329;28;20116;-74
2022/10/11 07:51:19;;;;;;;9.27;3.50;;;;;;;17.83;100.00;100831.63;5092016;28;20051;-74
2022/10/11 07:53:53;;;;;;;8.07;3.50;;;;;;;17.89;100.00;100853.69;5091668;28;20038;-74
2022/10/11 07:56:26;;;;;;;7.50;3.63;;;;;;;18.01;100.00;100846.25;5091183;28;20332;-73
2022/10/11 07:58:55;;;;;;;7.20;3.65;;;;;;;18.19;100.00;100902.06;5091978;28;20031;-74
2022/10/11 08:01:22;;;;;;;6.35;3.30;;;;;;;18.01;100.00;100845.41;5090347;28;20027;-73
2022/10/11 08:03:48;;;;;;;9.93;3.63;;;;;;;18.04;100.00;100843.53;5090337;28;20172;-73
2022/10/11 08:06:17;;;;;;;8.45;4.03;;;;;;;18.49;100.00;100894.75;5091927;28;20028;-73
2022/10/11 08:08:42;;;;;;;11.55;4.32;;;;;;;18.29;100.00;100853.56;5090423;28;20039;-73
2022/10/11 08:11:08;;;;;;;8.60;4.03;;;;;;;17.81;100.00;100859.16;5091917;28;20031;-73
2022/10/11 08:13:34;;;;;;;6.63;3.97;;;;;;;18.27;100.00;100839.94;5090679;28;20028;-73
2022/10/11 08:16:00;;;;;;;9.80;3.92;;;;;;;18.84;100.00;100899.09;5090166;28;20059;-73
2022/10/11 08:18:26;;;;;;;8.02;3.53;;;;;;;18.19;100.00;100852.31;5091682;28;20494;-73
2022/10/11 08:20:51;;;;;;;8.07;3.85;;;;;;;18.54;100.00;100830.94;5091414;28;20034;-72
2022/10/11 08:23:17;;;;;;;7.18;3.40;;;;;;;18.28;100.00;100841.63;5091583;28;20036;-73
2022/10/11 08:25:45;;;;;;;11.48;4.55;;;;;;;19.27;100.00;100866.94;5091610;28;20478;-73
2022/10/11 08:28:16;;;;;;;6.22;3.40;;;;;;;18.66;100.00;100842.44;5091640;28;20710;-74
2022/10/11 08:30:52;;;;;;;7.10;3.50;;;;;;;18.76;100.00;100834.19;5090801;28;20028;-72
2022/10/11 08:33:19;;;;;;;5.60;3.30;;;;;;;19.83;100.00;100882.13;5091565;28;20103;-74
2022/10/11 08:35:45;;;;;;;6.07;3.35;;;;;;;19.29;100.00;100893.47;5091607;28;20043;-73
2022/10/11 08:38:11;;;;;;;9.35;3.85;;;;;;;19.00;100.00;100891.47;5091855;28;20028;-74
2022/10/11 08:40:36;;;;;;;10.07;3.47;;;;;;;18.65;100.00;100835.59;5091696;28;20106;-75
2022/10/11 08:43:07;;;;;;;8.95;3.58;;;;;;;18.41;100.00;100850.44;5091456;28;20856;-75
2022/10/11 08:45:47;;;;;;;10.38;3.47;;;;;;;18.47;100.00;100813.28;5090216;28;20028;-73
2022/10/11 08:48:20;;;;;;;10.85;4.10;;;;;;;18.86;100.00;100825.09;5091733;28;20028;-74
2022/10/11 08:50:49;;;;;;;12.68;3.55;;;;;;;18.82;100.00;100882.00;5089984;28;20028;-74
2022/10/11 08:53:22;;;;;;;8.82;3.20;;;;;;;19.60;100.00;100874.75;5091289;28;20024;-74
2022/10/11 08:55:50;;;;;;;5.63;3.58;;;;;;;18.80;100.00;100883.81;5090441;28;20028;-74
2022/10/11 08:58:24;;;;;;;7.38;3.60;;;;;;;19.03;100.00;100858.63;5089893;28;20801;-74
2022/10/11 09:00:53;;;;;;;10.82;4.35;;;;;;;18.28;100.00;100821.03;5090175;28;20651;-76
2022/10/11 09:03:40;;;;;;;7.70;3.75;;;;;;;19.11;100.00;100871.16;5089753;28;20035;-74
2022/10/11 09:06:33;;;;;;;11.13;3.80;;;;;;;20.02;100.00;100871.69;5090112;28;20744;-73
2022/10/11 09:09:20;;;;;;;9.32;4.10;;;;;;;20.08;100.00;100869.66;5094453;28;20024;-73
2022/10/11 09:12:09;;;;;;;8.63;4.20;;;;;;;19.63;100.00;100861.72;5094579;28;20028;-72
2022/10/11 09:15:00;;;;;;;8.93;3.90;;;;;;;19.43;100.00;100867.84;5094648;28;20098;-74
2022/10/11 09:17:53;;;;;;;6.95;4.00;;;;;;;19.86;100.00;100866.50;5094537;28;20050;-72
2022/10/11 09:20:37;;;;;;;6.82;4.03;;;;;;;19.50;100.00;100865.78;5094723;28;20035;-72
2022/10/11 09:23:08;;;;;;;9.93;3.92;;;;;;;19.52;100.00;100856.25;5092924;28;20035;-72
2022/10/11 09:25:52;;;;;;;8.85;4.22;;;;;;;19.19;100.00;100839.84;5094844;28;20024;-73
2022/10/11 09:28:49;;;;;;;7.22;4.05;;;;;;;19.84;100.00;100861.44;5094410;28;20107;-73
2022/10/11 09:31:15;;;;;;;9.35;4.40;;;;;;;19.55;100.00;100840.63;5100360;28;20071;-74
2022/10/11 09:33:50;;;;;;;6.00;3.95;;;;;;;19.34;100.00;100805.56;5113399;28;20522;-74
2022/10/11 09:36:29;;;;;;;6.97;3.88;;;;;;;19.41;100.00;100849.03;5114787;28;20031;-74
2022/10/11 09:39:06;;;;;;;11.75;4.45;;;;;;;19.79;100.00;100858.25;5113530;28;20786;-74
2022/10/11 09:41:44;;;;;;;8.50;4.00;;;;;;;19.45;100.00;100854.88;5113297;28;20048;-74
2022/10/11 09:44:20;;;;;;;9.57;4.18;;;;;;;19.24;100.00;100810.34;5108531;28;20032;-77
2022/10/11 09:46:48;;;;;;;14.38;4.68;;;;;;;19.40;100.00;100852.53;5115296;28;20035;-79
2022/10/11 09:49:17;;;;;;;8.82;4.28;;;;;;;18.89;100.00;100783.75;5100548;28;20024;-77
2022/10/11 09:51:50;;;;;;;11.60;4.63;;;;;;;19.39;100.00;100847.47;5093320;28;20478;-75
2022/10/11 09:54:17;;;;;;;9.27;4.55;;;;;;;18.78;100.00;100752.50;5094611;28;20050;-76
2022/10/11 09:56:44;;;;;;;15.35;9.07;;;;;;;19.38;100.00;100838.03;5093552;28;20441;-76
2022/10/11 09:59:29;;;;;;;8.27;5.40;;;;;;;19.44;100.00;100835.16;5093981;28;20027;-75
2022/10/11 10:02:13;;;;;;;10.35;4.93;;;;;;;19.48;100.00;100834.94;5094458;28;20024;-76
2022/10/11 10:04:57;;;;;;;8.13;4.22;;;;;;;19.25;100.00;100839.53;5092902;28;20126;-74
2022/10/11 10:07:22;;;;;;;9.43;3.80;;;;;;;19.88;100.00;100824.22;5094202;28;20088;-75
2022/10/11 10:09:49;;;;;;;8.80;4.55;;;;;;;19.41;100.00;100781.16;5093696;28;20035;-73
2022/10/11 10:12:21;;;;;;;9.50;4.40;;;;;;;19.28;100.00;100769.75;5093904;28;20482;-74
2022/10/11 10:15:06;;;;;;;7.88;4.03;;;;;;;19.21;100.00;100769.25;5093425;28;20486;-74
2022/10/11 10:17:32;;;;;;;10.75;4.50;;;;;;;19.69;100.00;100817.50;5091074;28;20063;-74
2022/10/11 10:19:59;;;;;;;10.48;4.68;;;;;;;19.35;100.00;100747.94;5090217;28;20032;-74
2022/10/11 10:22:31;;;;;;;7.75;4.53;;;;;;;20.16;100.00;100795.19;5090918;28;20028;-75
2022/10/11 10:24:59;;;;;;;7.60;4.47;;;;;;;20.29;100.00;100810.84;5093962;28;20028;-75
2022/10/11 10:27:28;;;;;;;7.15;4.05;;;;;;;20.31;100.00;100796.09;5093764;28;20035;-74
2022/10/11 10:30:14;;;;;;;7.20;4.10;;;;;;;20.27;100.00;100804.94;5093580;28;20058;-74
2022/10/11 10:32:52;;;;;;;9.77;4.65;;;;;;;19.65;100.00;100742.00;5093544;28;20028;-75
2022/10/11 10:35:37;;;;;;;10.20;5.00;;;;;;;19.57;100.00;100733.00;5093209;28;20031;-73
2022/10/11 10:38:14;;;;;;;6.55;4.60;;;;;;;19.96;100.00;100790.25;5093290;28;20405;-73
2022/10/11 10:41:00;;;;;;;7.43;4.65;;;;;;;20.06;100.00;100794.00;5092213;28;20097;-74
2022/10/11 10:43:32;;;;;;;9.98;4.90;;;;;;;20.01;100.00;100792.56;5091711;28;20082;-73
2022/10/11 10:46:00;;;;;;;7.30;4.90;;;;;;;20.38;100.00;100800.03;5091590;28;20035;-73
2022/10/11 10:49:01;;;;;;;8.15;5.28;;;;;;;20.05;100.00;100797.50;5092156;28;20024;-73
2022/10/11 10:51:38;;;;;;;10.30;5.25;;;;;;;19.88;100.00;100741.63;5093038;28;20027;-73
2022/10/11 10:54:03;;;;;;;11.40;5.70;;;;;;;20.38;100.00;100798.25;5091863;28;20031;-74
2022/10/11 10:56:45;;;;;;;8.65;5.47;;;;;;;20.41;100.00;100789.50;5093203;28;20027;-74
2022/10/11 10:59:36;;;;;;;10.82;4.90;;;;;;;20.28;100.00;100786.75;5091895;28;20059;-74
2022/10/11 11:02:49;;;;;;;8.02;5.28;;;;;;;20.12;100.00;100759.25;5081950;28;20039;-72
2022/10/11 11:05:22;;;;;;;15.02;10.13;;;;;;;20.14;100.00;100784.09;5055718;28;20036;-73
2022/10/11 11:08:14;;;;;;;15.23;9.25;;;;;;;20.42;100.00;100783.44;5092618;28;20500;-72
2022/10/11 11:10:52;;;;;;;13.43;6.60;;;;;;;20.34;100.00;100727.00;5092803;28;20024;-72
2022/10/11 11:13:29;;;;;;;10.35;5.70;;;;;;;20.70;100.00;100776.63;5092749;28;20024;-72
2022/10/11 11:16:19;;;;;;;8.73;5.25;;;;;;;20.47;100.00;100720.25;5092042;28;20060;-71
2022/10/11 11:19:00;;;;;;;8.38;5.50;;;;;;;20.29;100.00;100729.03;5091893;28;20062;-73
2022/10/11 11:21:44;;;;;;;12.05;7.55;;;;;;;20.79;100.00;100764.09;5090782;28;20039;-72
2022/10/11 11:24:34;;;;;;;13.15;9.77;;;;;;;20.73;100.00;100773.88;5092353;28;20055;-73
2022/10/11 11:27:24;;;;;;;11.32;7.68;;;;;;;21.37;100.00;100760.63;5092362;28;20032;-72